Time;durP1;ratioP1;P1;durP2;ratioP2;P2;SDS_P1;SDS_P2;PMS_P1;PMS_P2;Temp;Humidity;BMP_temperature;BMP_pressure;BME280_temperature;BME280_humidity;BME280_pressure;Samples;Min_cycle;Max_cycle;Signal;HPM_P1;HPM_P2
2021/11/15 00:00:02;;;;;;;58.90;28.20;;;6.50;99.90;;;;;;5011159;28;20053;-73
2021/11/15 00:02:40;;;;;;;59.70;27.73;;;6.50;99.90;;;;;;5012011;28;20061;-73
2021/11/15 00:05:08;;;;;;;51.45;26.90;;;6.50;99.90;;;;;;5027836;28;20061;-73
2021/11/15 00:07:35;;;;;;;54.53;27.75;;;6.40;99.90;;;;;;5008344;28;20127;-72
2021/11/15 00:10:04;;;;;;;60.97;28.88;;;6.40;99.90;;;;;;5028569;28;20049;-73
2021/11/15 00:12:31;;;;;;;53.08;27.58;;;6.40;99.90;;;;;;5010608;28;20058;-73
2021/11/15 00:14:57;;;;;;;54.40;26.90;;;6.40;99.90;;;;;;5012164;28;20056;-72
2021/11/15 00:17:24;;;;;;;55.55;26.40;;;6.40;99.90;;;;;;4993745;28;20042;-73
2021/11/15 00:19:51;;;;;;;58.92;29.02;;;6.40;99.90;;;;;;4994399;28;20054;-73
2021/11/15 00:22:18;;;;;;;53.53;25.35;;;6.30;99.90;;;;;;5010511;28;20102;-72
2021/11/15 00:24:45;;;;;;;52.28;25.88;;;6.30;99.90;;;;;;5028728;28;20129;-73
2021/11/15 00:27:11;;;;;;;50.75;26.58;;;6.20;99.90;;;;;;5007343;28;20054;-73
2021/11/15 00:29:38;;;;;;;55.13;25.50;;;6.30;99.90;;;;;;5028588;28;20041;-73
2021/11/15 00:32:05;;;;;;;51.28;26.25;;;6.30;99.90;;;;;;4993640;28;20072;-72
2021/11/15 00:34:32;;;;;;;51.83;27.95;;;6.30;99.90;;;;;;5027575;28;20056;-72
2021/11/15 00:36:59;;;;;;;54.65;26.60;;;6.20;99.90;;;;;;5027863;28;20155;-73
2021/11/15 00:39:26;;;;;;;54.60;26.55;;;6.20;99.90;;;;;;5027922;28;20073;-73
2021/11/15 00:41:53;;;;;;;52.45;27.02;;;6.30;99.90;;;;;;5026688;28;20053;-73
2021/11/15 00:44:20;;;;;;;54.70;27.63;;;6.30;99.90;;;;;;5009534;28;20045;-72
2021/11/15 00:46:47;;;;;;;53.67;27.90;;;6.30;99.90;;;;;;5027387;28;20053;-72
2021/11/15 00:49:14;;;;;;;56.03;28.83;;;6.40;99.90;;;;;;5028279;28;20050;-73
2021/11/15 00:51:40;;;;;;;49.28;26.17;;;6.50;99.90;;;;;;5009562;28;20535;-72
2021/11/15 00:54:07;;;;;;;48.53;26.92;;;6.50;99.90;;;;;;4993994;28;20053;-73
2021/11/15 00:56:34;;;;;;;50.95;25.25;;;6.40;99.90;;;;;;5011366;28;20060;-73
2021/11/15 00:59:01;;;;;;;49.08;24.00;;;6.40;99.90;;;;;;5030021;28;20061;-73
2021/11/15 01:01:28;;;;;;;53.72;27.75;;;6.30;99.90;;;;;;5033857;28;20041;-72
2021/11/15 01:03:55;;;;;;;55.22;27.67;;;6.30;99.90;;;;;;5027822;28;20049;-73
2021/11/15 01:06:22;;;;;;;49.17;26.65;;;6.20;99.90;;;;;;5025744;28;20046;-73
2021/11/15 01:08:49;;;;;;;54.72;28.88;;;6.30;99.90;;;;;;5026198;28;20049;-72
2021/11/15 01:11:16;;;;;;;52.50;26.30;;;6.30;99.90;;;;;;5027110;28;20045;-73
2021/11/15 01:13:45;;;;;;;47.88;25.75;;;6.40;99.90;;;;;;5009404;28;20060;-73
2021/11/15 01:16:12;;;;;;;54.55;28.10;;;6.30;99.90;;;;;;5008436;28;20057;-73
2021/11/15 01:18:43;;;;;;;51.17;27.00;;;6.20;99.90;;;;;;5028045;28;20491;-73
2021/11/15 01:21:12;;;;;;;54.60;26.45;;;6.20;99.90;;;;;;5008887;28;20061;-72
2021/11/15 01:23:39;;;;;;;57.53;28.55;;;6.20;99.90;;;;;;5027560;28;20057;-72
2021/11/15 01:26:08;;;;;;;56.65;28.77;;;6.20;99.90;;;;;;5009425;28;20054;-73
2021/11/15 01:28:35;;;;;;;49.75;25.67;;;6.10;99.90;;;;;;5009387;28;20064;-72
2021/11/15 01:31:02;;;;;;;40.13;20.75;;;6.10;99.90;;;;;;5026174;28;20061;-73
2021/11/15 01:33:29;;;;;;;50.85;23.40;;;6.10;99.90;;;;;;5009455;28;20050;-72
2021/11/15 01:35:56;;;;;;;48.83;24.73;;;6.00;99.90;;;;;;5006288;28;20157;-72
2021/11/15 01:38:23;;;;;;;50.75;25.02;;;6.10;99.90;;;;;;5009349;28;20053;-72
2021/11/15 01:40:50;;;;;;;55.75;26.67;;;6.00;99.90;;;;;;5007434;28;20060;-73
2021/11/15 01:43:17;;;;;;;49.72;25.23;;;6.10;99.90;;;;;;5008679;28;20184;-73
2021/11/15 01:45:44;;;;;;;54.38;26.20;;;6.00;99.90;;;;;;5026040;28;20107;-72
2021/11/15 01:48:13;;;;;;;53.45;26.77;;;6.10;99.90;;;;;;5027088;28;20467;-73
2021/11/15 01:50:41;;;;;;;49.63;24.95;;;6.00;99.90;;;;;;5008288;28;20049;-73
2021/11/15 01:53:09;;;;;;;54.45;26.70;;;6.00;99.90;;;;;;5027512;28;20053;-73
2021/11/15 01:55:38;;;;;;;59.47;26.90;;;6.00;99.90;;;;;;5009106;28;20063;-73
2021/11/15 01:58:09;;;;;;;61.40;30.23;;;6.00;99.90;;;;;;5025971;28;20521;-73
2021/11/15 02:00:54;;;;;;;61.70;29.88;;;6.10;99.90;;;;;;5026707;28;20115;-73
2021/11/15 02:03:22;;;;;;;62.90;29.92;;;6.00;99.90;;;;;;5008160;28;20577;-72
2021/11/15 02:05:50;;;;;;;63.63;28.00;;;6.10;99.90;;;;;;5007344;28;20072;-72
2021/11/15 02:08:17;;;;;;;62.72;25.35;;;6.00;99.90;;;;;;5007628;28;20061;-72
2021/11/15 02:10:46;;;;;;;61.65;27.58;;;5.90;99.90;;;;;;5024526;28;20065;-73
2021/11/15 02:13:14;;;;;;;62.72;27.15;;;5.90;99.90;;;;;;5008376;28;20046;-73
2021/11/15 02:15:41;;;;;;;65.43;28.50;;;5.80;99.90;;;;;;5007389;28;20053;-72
2021/11/15 02:18:09;;;;;;;75.78;31.10;;;5.80;99.90;;;;;;5008215;28;20597;-72
2021/11/15 02:20:46;;;;;;;67.80;28.33;;;5.80;99.90;;;;;;4991150;28;20049;-72
2021/11/15 02:23:14;;;;;;;65.35;28.45;;;5.80;99.90;;;;;;5008699;28;20057;-73
2021/11/15 02:25:41;;;;;;;61.88;25.50;;;5.80;99.90;;;;;;5025896;28;20041;-73
2021/11/15 02:28:08;;;;;;;59.42;26.38;;;5.70;99.90;;;;;;5025494;28;20312;-73
2021/11/15 02:30:35;;;;;;;71.65;27.75;;;5.70;99.90;;;;;;5026057;28;20068;-74
2021/11/15 02:33:02;;;;;;;68.00;26.52;;;5.80;99.90;;;;;;5008032;28;20140;-72
2021/11/15 02:35:29;;;;;;;63.53;27.55;;;5.80;99.90;;;;;;5003977;28;20054;-72
2021/11/15 02:37:57;;;;;;;57.95;23.60;;;5.80;99.90;;;;;;5008052;28;20073;-73
2021/11/15 02:40:26;;;;;;;59.97;25.92;;;5.80;99.90;;;;;;5005053;28;20476;-73
2021/11/15 02:42:55;;;;;;;51.08;22.83;;;5.80;99.90;;;;;;5006673;28;20053;-72
2021/11/15 02:45:22;;;;;;;54.85;22.60;;;5.70;99.90;;;;;;5007362;28;20322;-73
2021/11/15 02:47:49;;;;;;;53.88;21.85;;;5.70;99.90;;;;;;5007782;28;20084;-73
2021/11/15 02:50:22;;;;;;;52.92;22.92;;;5.60;99.90;;;;;;5006909;28;20049;-73
2021/11/15 02:52:53;;;;;;;55.63;23.60;;;5.60;99.90;;;;;;5007843;28;20508;-73
2021/11/15 02:55:21;;;;;;;50.53;21.10;;;5.70;99.90;;;;;;4991929;28;20068;-72
2021/11/15 02:57:48;;;;;;;50.88;21.48;;;5.60;99.90;;;;;;5010818;28;20099;-73
2021/11/15 03:00:21;;;;;;;44.65;19.60;;;5.50;99.90;;;;;;5027285;28;20049;-73
2021/11/15 03:02:49;;;;;;;37.40;17.33;;;5.60;99.90;;;;;;5039959;28;20057;-72
2021/11/15 03:05:25;;;;;;;39.65;17.58;;;5.60;99.90;;;;;;5019665;28;20500;-73
2021/11/15 03:07:53;;;;;;;35.78;16.10;;;5.50;99.90;;;;;;5024061;28;20053;-72
2021/11/15 03:10:20;;;;;;;31.50;14.32;;;5.50;99.90;;;;;;5040183;28;20435;-73
2021/11/15 03:12:47;;;;;;;32.05;16.17;;;5.50;99.90;;;;;;5007069;28;20468;-72
2021/11/15 03:15:36;;;;;;;34.60;16.08;;;5.50;99.90;;;;;;5006854;28;20429;-73
2021/11/15 03:18:05;;;;;;;37.28;15.77;;;5.40;99.90;;;;;;5022890;28;20522;-72
2021/11/15 03:20:39;;;;;;;34.80;16.70;;;5.30;99.90;;;;;;5006561;28;20074;-72
2021/11/15 03:23:14;;;;;;;35.57;17.90;;;5.50;99.90;;;;;;5007797;28;20121;-73
2021/11/15 03:25:41;;;;;;;33.95;17.88;;;5.50;99.90;;;;;;5023931;28;20431;-72
2021/11/15 03:28:11;;;;;;;35.65;17.30;;;5.50;99.90;;;;;;5007598;28;20066;-73
2021/11/15 03:30:38;;;;;;;34.15;17.17;;;5.50;99.90;;;;;;5006346;28;20060;-73
2021/11/15 03:33:08;;;;;;;38.10;17.27;;;5.50;99.90;;;;;;5006264;28;20065;-73
2021/11/15 03:35:36;;;;;;;41.17;18.00;;;5.50;99.90;;;;;;5006443;28;20060;-73
2021/11/15 03:38:03;;;;;;;32.55;16.27;;;5.50;99.90;;;;;;5006629;28;20080;-73
2021/11/15 03:40:30;;;;;;;30.40;15.50;;;5.50;99.90;;;;;;4988347;28;20500;-73
2021/11/15 03:43:00;;;;;;;32.85;16.25;;;5.50;99.90;;;;;;4990090;28;20527;-73
2021/11/15 03:45:28;;;;;;;34.63;15.73;;;5.40;99.90;;;;;;5022649;28;20915;-72
2021/11/15 03:47:56;;;;;;;33.17;15.68;;;5.40;99.90;;;;;;5023894;28;20049;-73
2021/11/15 03:50:24;;;;;;;38.40;18.80;;;5.30;99.90;;;;;;5023646;28;20515;-72
2021/11/15 03:52:52;;;;;;;33.17;16.98;;;5.30;99.90;;;;;;5007248;28;20053;-73
2021/11/15 03:55:21;;;;;;;39.58;17.80;;;5.30;99.90;;;;;;5024251;28;20125;-73
2021/11/15 03:57:48;;;;;;;35.10;17.73;;;5.30;99.90;;;;;;5035853;28;20534;-73
2021/11/15 04:00:29;;;;;;;39.22;18.35;;;5.30;99.90;;;;;;5026430;28;20088;-73
2021/11/15 04:03:01;;;;;;;35.08;16.48;;;5.40;99.90;;;;;;5010304;28;20115;-72
2021/11/15 04:05:33;;;;;;;34.08;17.17;;;5.40;99.90;;;;;;5005506;28;20049;-73
2021/11/15 04:08:07;;;;;;;34.45;15.60;;;5.40;99.90;;;;;;4989053;28;20115;-72
2021/11/15 04:10:38;;;;;;;35.28;17.00;;;5.40;99.90;;;;;;5024038;28;20163;-73
2021/11/15 04:13:18;;;;;;;42.67;17.70;;;5.30;99.90;;;;;;4989857;28;20061;-72
2021/11/15 04:15:49;;;;;;;36.67;16.83;;;5.30;99.90;;;;;;4972880;28;20156;-73
2021/11/15 04:18:20;;;;;;;41.60;19.55;;;5.40;99.90;;;;;;5006229;28;20076;-73
2021/11/15 04:20:47;;;;;;;37.78;18.20;;;5.40;99.90;;;;;;5005747;28;20072;-73
2021/11/15 04:23:13;;;;;;;44.13;17.92;;;5.50;99.90;;;;;;4990266;28;20068;-73
2021/11/15 04:25:40;;;;;;;37.17;16.63;;;5.50;99.90;;;;;;5005071;28;20145;-72
2021/11/15 04:28:08;;;;;;;40.97;19.15;;;5.40;99.90;;;;;;4986303;28;20383;-72
2021/11/15 04:30:35;;;;;;;45.17;18.65;;;5.30;99.90;;;;;;4990738;28;20049;-73
2021/11/15 04:33:04;;;;;;;44.45;19.42;;;5.40;99.90;;;;;;5023519;28;20512;-73
2021/11/15 04:35:32;;;;;;;43.40;19.08;;;5.40;99.90;;;;;;5001383;28;20057;-72
2021/11/15 04:38:00;;;;;;;43.00;18.17;;;5.30;99.90;;;;;;5006007;28;20056;-72
2021/11/15 04:40:28;;;;;;;40.00;18.02;;;5.30;99.90;;;;;;5004966;28;20041;-73
2021/11/15 04:42:55;;;;;;;41.97;18.38;;;5.20;99.90;;;;;;5009906;28;20085;-73
2021/11/15 04:45:22;;;;;;;49.13;21.05;;;5.20;99.90;;;;;;5008670;28;20045;-72
2021/11/15 04:47:49;;;;;;;45.60;18.75;;;5.30;99.90;;;;;;5008832;28;20049;-73
2021/11/15 04:50:16;;;;;;;43.60;18.75;;;5.20;99.90;;;;;;4992708;28;20099;-73
2021/11/15 04:52:44;;;;;;;46.50;20.17;;;5.30;99.90;;;;;;5009388;28;20563;-73
2021/11/15 04:55:14;;;;;;;47.38;18.40;;;5.40;99.90;;;;;;5027283;28;20051;-73
2021/11/15 04:57:41;;;;;;;44.80;19.23;;;5.30;99.90;;;;;;5012803;28;20051;-72
2021/11/15 05:00:17;;;;;;;37.03;17.33;;;5.30;99.90;;;;;;5029180;28;20040;-73
2021/11/15 05:02:46;;;;;;;43.28;19.08;;;5.30;99.90;;;;;;5024501;28;20458;-72
2021/11/15 05:05:14;;;;;;;43.70;19.80;;;5.30;99.90;;;;;;5026465;28;20064;-74
2021/11/15 05:07:41;;;;;;;45.92;21.02;;;5.20;99.90;;;;;;4991366;28;20434;-73
2021/11/15 05:10:09;;;;;;;45.17;19.20;;;5.30;99.90;;;;;;5026794;28;20037;-72
2021/11/15 05:12:36;;;;;;;45.40;19.85;;;5.30;99.90;;;;;;5026717;28;20064;-72
2021/11/15 05:15:12;;;;;;;44.75;20.40;;;5.30;99.90;;;;;;5026473;28;20153;-73
2021/11/15 05:17:40;;;;;;;50.92;20.00;;;5.30;99.90;;;;;;5008273;28;20060;-73
2021/11/15 05:20:09;;;;;;;49.80;20.60;;;5.20;99.90;;;;;;5008177;28;20045;-73
2021/11/15 05:22:36;;;;;;;46.25;19.92;;;5.20;99.90;;;;;;5026103;28;20049;-73
2021/11/15 05:25:07;;;;;;;48.03;21.95;;;5.20;99.90;;;;;;5009362;28;20050;-73
2021/11/15 05:27:35;;;;;;;50.88;21.40;;;5.20;99.90;;;;;;5008545;28;20073;-73
2021/11/15 05:30:04;;;;;;;53.67;22.85;;;5.20;99.90;;;;;;5026126;28;20544;-73
2021/11/15 05:32:31;;;;;;;48.97;22.02;;;5.20;99.90;;;;;;5009154;28;20057;-73
2021/11/15 05:34:58;;;;;;;49.08;20.83;;;5.20;99.90;;;;;;5008244;28;20057;-73
2021/11/15 05:37:25;;;;;;;45.97;20.25;;;5.20;99.90;;;;;;5007871;28;20389;-72
2021/11/15 05:39:52;;;;;;;44.70;20.35;;;5.20;99.90;;;;;;5008226;28;20475;-73
2021/11/15 05:42:19;;;;;;;51.03;21.40;;;5.20;99.90;;;;;;5007970;28;20055;-74
2021/11/15 05:44:46;;;;;;;45.72;22.38;;;5.20;99.90;;;;;;5025597;28;20132;-73
2021/11/15 05:47:13;;;;;;;43.35;21.20;;;5.20;99.90;;;;;;5017510;28;20547;-73
2021/11/15 05:49:40;;;;;;;39.67;19.67;;;5.10;99.90;;;;;;5026071;28;20067;-73
2021/11/15 05:52:08;;;;;;;36.95;18.75;;;5.10;99.90;;;;;;5024806;28;20079;-73
2021/11/15 05:54:35;;;;;;;34.50;16.83;;;5.10;99.90;;;;;;4991980;28;20055;-73
2021/11/15 05:57:03;;;;;;;39.80;17.70;;;5.10;99.90;;;;;;5031228;28;20040;-74
2021/11/15 05:59:30;;;;;;;36.95;18.60;;;5.10;99.90;;;;;;5027718;28;20049;-73
2021/11/15 06:01:56;;;;;;;36.58;17.02;;;5.20;99.90;;;;;;5027401;28;20053;-73
2021/11/15 06:04:23;;;;;;;30.02;15.18;;;5.20;99.90;;;;;;4993256;28;20095;-73
2021/11/15 06:06:51;;;;;;;31.52;16.67;;;5.20;99.90;;;;;;5006728;28;20049;-73
2021/11/15 06:09:18;;;;;;;23.60;13.63;;;5.20;99.90;;;;;;5023429;28;20029;-73
2021/11/15 06:11:45;;;;;;;26.13;14.07;;;5.10;99.90;;;;;;5024873;28;20041;-74
2021/11/15 06:14:12;;;;;;;33.45;15.57;;;5.10;99.90;;;;;;5025667;28;20042;-74
2021/11/15 06:16:39;;;;;;;28.90;15.27;;;5.10;99.90;;;;;;5024975;28;20064;-73
2021/11/15 06:19:06;;;;;;;31.60;17.50;;;5.10;99.90;;;;;;5025919;28;20041;-73
2021/11/15 06:21:33;;;;;;;33.60;17.13;;;5.10;99.90;;;;;;4991566;28;20124;-73
2021/11/15 06:24:01;;;;;;;31.00;17.20;;;5.10;99.90;;;;;;5026192;28;20053;-73
2021/11/15 06:26:31;;;;;;;32.08;16.92;;;5.10;99.90;;;;;;5006918;28;20613;-73
2021/11/15 06:28:58;;;;;;;30.35;16.23;;;5.20;99.90;;;;;;5025232;28;20052;-73
2021/11/15 06:31:25;;;;;;;32.58;18.75;;;5.20;99.90;;;;;;5002205;28;20055;-73
2021/11/15 06:33:52;;;;;;;36.13;17.98;;;5.20;99.90;;;;;;5007203;28;20049;-74
2021/11/15 06:36:23;;;;;;;32.40;18.90;;;5.10;99.90;;;;;;5007343;28;20487;-73
2021/11/15 06:38:53;;;;;;;38.85;19.92;;;5.10;99.90;;;;;;5025392;28;20642;-73
2021/11/15 06:41:21;;;;;;;37.47;19.83;;;5.10;99.90;;;;;;5022885;28;20045;-73
2021/11/15 06:43:48;;;;;;;39.60;21.02;;;5.10;99.90;;;;;;5008212;28;20054;-73
2021/11/15 06:46:15;;;;;;;38.78;20.92;;;5.20;99.90;;;;;;5004513;28;20647;-73
2021/11/15 06:48:42;;;;;;;43.38;22.80;;;5.20;99.90;;;;;;4989370;28;20045;-73
2021/11/15 06:51:29;;;;;;;39.45;21.20;;;5.20;99.90;;;;;;5004503;28;20045;-74
2021/11/15 06:53:56;;;;;;;35.42;18.65;;;5.30;99.90;;;;;;5024572;28;20056;-73
2021/11/15 06:56:23;;;;;;;36.22;19.35;;;5.30;99.90;;;;;;5023230;28;20052;-72
2021/11/15 06:58:50;;;;;;;37.75;19.13;;;5.40;99.90;;;;;;5023893;28;20049;-73
2021/11/15 07:01:17;;;;;;;31.95;18.05;;;5.30;99.90;;;;;;4990268;28;20407;-73
2021/11/15 07:03:44;;;;;;;36.15;18.73;;;5.20;99.90;;;;;;5006526;28;20404;-73
2021/11/15 07:06:11;;;;;;;35.08;18.42;;;5.20;99.90;;;;;;5023497;28;20057;-73
2021/11/15 07:08:38;;;;;;;36.92;21.27;;;5.20;99.90;;;;;;5022979;28;20537;-74
2021/11/15 07:11:05;;;;;;;38.42;21.08;;;5.20;99.90;;;;;;5023744;28;20063;-73
2021/11/15 07:13:31;;;;;;;35.80;20.83;;;5.20;99.90;;;;;;5006213;28;20056;-73
2021/11/15 07:15:58;;;;;;;39.47;20.35;;;5.30;99.90;;;;;;5004626;28;20088;-72
2021/11/15 07:18:27;;;;;;;73.95;35.45;;;5.30;99.90;;;;;;5005981;28;20046;-73
2021/11/15 07:20:54;;;;;;;119.05;57.40;;;5.30;99.90;;;;;;5022673;28;20041;-73
2021/11/15 07:23:22;;;;;;;36.50;19.35;;;5.20;99.90;;;;;;5006559;28;20045;-73
2021/11/15 07:25:51;;;;;;;41.90;20.48;;;5.30;99.90;;;;;;5006813;28;20125;-73
2021/11/15 07:28:17;;;;;;;34.08;18.40;;;5.20;99.90;;;;;;5006347;28;20042;-73
2021/11/15 07:30:45;;;;;;;39.13;20.48;;;5.10;99.90;;;;;;5005066;28;20038;-73
2021/11/15 07:33:13;;;;;;;44.97;23.75;;;5.20;99.90;;;;;;5023775;28;20508;-73
2021/11/15 07:35:40;;;;;;;39.25;19.58;;;5.20;99.90;;;;;;5022759;28;20107;-73
2021/11/15 07:38:07;;;;;;;39.60;21.30;;;5.30;99.90;;;;;;5005450;28;20049;-72
2021/11/15 07:40:34;;;;;;;35.40;17.95;;;5.20;99.90;;;;;;5022424;28;20045;-73
2021/11/15 07:43:01;;;;;;;38.38;19.70;;;5.10;99.90;;;;;;5005256;28;20064;-72
2021/11/15 07:45:28;;;;;;;33.65;17.80;;;5.10;99.90;;;;;;5015685;28;20050;-73
2021/11/15 07:47:55;;;;;;;32.53;19.10;;;5.10;99.90;;;;;;5025039;28;20049;-73
2021/11/15 07:50:21;;;;;;;28.95;17.80;;;5.10;99.90;;;;;;4989995;28;20696;-72
2021/11/15 07:52:48;;;;;;;35.13;19.50;;;5.00;99.90;;;;;;4990255;28;20758;-71
2021/11/15 07:55:16;;;;;;;35.28;18.17;;;5.10;99.90;;;;;;4990068;28;20045;-72
2021/11/15 07:57:43;;;;;;;39.00;19.67;;;5.20;99.90;;;;;;5015268;28;20598;-72
2021/11/15 08:00:14;;;;;;;34.08;18.02;;;5.20;99.90;;;;;;5005182;28;20037;-72
2021/11/15 08:02:41;;;;;;;26.98;14.13;;;5.30;99.90;;;;;;5007242;28;20046;-72
2021/11/15 08:05:10;;;;;;;42.83;22.25;;;5.10;99.90;;;;;;5022797;28;20065;-72
2021/11/15 08:07:37;;;;;;;37.72;19.10;;;5.10;99.90;;;;;;5022911;28;20053;-72
2021/11/15 08:10:07;;;;;;;35.55;18.98;;;5.00;99.90;;;;;;5023919;28;20053;-72
2021/11/15 08:12:40;;;;;;;39.03;18.67;;;5.00;99.90;;;;;;5005463;28;20050;-72
2021/11/15 08:15:09;;;;;;;44.67;21.55;;;5.00;99.90;;;;;;5023370;28;20041;-72
2021/11/15 08:17:37;;;;;;;39.38;20.88;;;5.00;99.90;;;;;;4992529;28;20060;-72
2021/11/15 08:20:06;;;;;;;35.97;17.10;;;5.00;99.90;;;;;;5009091;28;20651;-73
2021/11/15 08:22:33;;;;;;;41.40;20.50;;;4.90;99.90;;;;;;5024944;28;20057;-72
2021/11/15 08:25:00;;;;;;;45.60;22.80;;;5.00;99.90;;;;;;5028739;28;20065;-72
2021/11/15 08:27:30;;;;;;;41.75;21.05;;;5.00;99.90;;;;;;5009470;28;20475;-72
2021/11/15 08:29:57;;;;;;;41.08;21.00;;;5.00;99.90;;;;;;5008648;28;20519;-72
2021/11/15 08:32:25;;;;;;;38.20;19.55;;;5.00;99.90;;;;;;4992785;28;20112;-73
2021/11/15 08:34:53;;;;;;;42.65;21.83;;;5.00;99.90;;;;;;5009808;28;20053;-72
2021/11/15 08:37:20;;;;;;;41.92;20.35;;;4.90;99.90;;;;;;5027599;28;20183;-72
2021/11/15 08:39:47;;;;;;;39.65;21.10;;;5.00;99.90;;;;;;5011003;28;20156;-71
2021/11/15 08:42:15;;;;;;;41.72;20.05;;;5.00;99.90;;;;;;4990772;28;20065;-71
2021/11/15 08:44:51;;;;;;;38.97;20.02;;;5.00;99.90;;;;;;5028118;28;20052;-72
2021/11/15 08:47:18;;;;;;;42.72;20.40;;;5.10;99.90;;;;;;5026991;28;20042;-71
2021/11/15 08:49:45;;;;;;;43.78;21.10;;;5.10;99.90;;;;;;4993541;28;20045;-72
2021/11/15 08:52:12;;;;;;;41.92;20.20;;;5.20;99.90;;;;;;5027189;28;20064;-72
2021/11/15 08:54:39;;;;;;;32.58;18.27;;;5.20;99.90;;;;;;5010530;28;20119;-72
2021/11/15 08:57:07;;;;;;;34.13;18.55;;;5.10;99.90;;;;;;4993774;28;20055;-72
2021/11/15 08:59:41;;;;;;;37.88;18.70;;;5.00;99.90;;;;;;5009600;28;20136;-71
2021/11/15 09:02:08;;;;;;;40.85;19.48;;;5.00;99.90;;;;;;5008747;28;20060;-71
2021/11/15 09:04:37;;;;;;;31.10;17.85;;;5.10;99.90;;;;;;5026484;28;20060;-72
2021/11/15 09:07:04;;;;;;;34.90;18.85;;;5.10;99.90;;;;;;5008930;28;20077;-71
2021/11/15 09:09:31;;;;;;;40.72;19.45;;;5.10;99.90;;;;;;5010471;28;20058;-72
2021/11/15 09:12:02;;;;;;;40.38;21.25;;;5.00;99.90;;;;;;5027532;28;20049;-71
2021/11/15 09:14:29;;;;;;;40.60;22.35;;;5.10;99.90;;;;;;5010155;28;20045;-72
2021/11/15 09:16:56;;;;;;;36.80;20.35;;;5.10;99.90;;;;;;5009115;28;20045;-73
2021/11/15 09:19:24;;;;;;;35.50;20.08;;;5.10;99.90;;;;;;5008322;28;20060;-73
2021/11/15 09:21:51;;;;;;;36.85;18.67;;;5.10;99.90;;;;;;4992829;28;20057;-72
2021/11/15 09:24:18;;;;;;;35.92;20.15;;;5.10;99.90;;;;;;4994272;28;20067;-72
2021/11/15 09:26:47;;;;;;;38.00;18.85;;;5.10;99.90;;;;;;5008667;28;20048;-73
2021/11/15 09:29:15;;;;;;;42.28;20.48;;;5.20;99.90;;;;;;4992304;28;20472;-73
2021/11/15 09:31:42;;;;;;;41.53;21.63;;;5.20;99.90;;;;;;5007035;28;20115;-73
2021/11/15 09:34:09;;;;;;;38.40;20.17;;;5.20;99.90;;;;;;5026224;28;20045;-73
2021/11/15 09:36:37;;;;;;;38.10;20.98;;;5.30;99.90;;;;;;5026342;28;20041;-73
2021/11/15 09:39:06;;;;;;;41.58;20.83;;;5.30;99.90;;;;;;5008703;28;20044;-73
2021/11/15 09:41:34;;;;;;;42.20;20.85;;;5.30;99.90;;;;;;5024468;28;20096;-73
2021/11/15 09:44:01;;;;;;;37.35;19.20;;;5.30;99.90;;;;;;5008697;28;20059;-73
2021/11/15 09:46:28;;;;;;;38.30;19.80;;;5.30;99.90;;;;;;5007405;28;20124;-73
2021/11/15 09:49:04;;;;;;;40.22;20.48;;;5.20;99.90;;;;;;5026238;28;20083;-73
2021/11/15 09:51:32;;;;;;;42.75;20.38;;;5.30;99.90;;;;;;5008243;28;20057;-73
2021/11/15 09:54:01;;;;;;;46.00;25.45;;;5.30;99.90;;;;;;5008831;28;20045;-73
2021/11/15 09:56:27;;;;;;;35.08;19.88;;;5.30;99.90;;;;;;5009708;28;20057;-73
2021/11/15 09:58:55;;;;;;;38.03;19.33;;;5.30;99.90;;;;;;5028367;28;20049;-73
2021/11/15 10:01:23;;;;;;;38.38;19.35;;;5.20;99.90;;;;;;5025700;28;20060;-73
2021/11/15 10:03:50;;;;;;;39.88;19.63;;;5.30;99.90;;;;;;5007445;28;20041;-73
2021/11/15 10:06:20;;;;;;;37.15;19.65;;;5.20;99.90;;;;;;5025511;28;20060;-73
2021/11/15 10:08:53;;;;;;;32.53;19.20;;;5.30;99.90;;;;;;5007942;28;20059;-73
2021/11/15 10:11:22;;;;;;;35.75;20.17;;;5.30;99.90;;;;;;5007310;28;20622;-72
2021/11/15 10:13:51;;;;;;;39.80;20.38;;;5.30;99.90;;;;;;5006728;28;20253;-73
2021/11/15 10:16:25;;;;;;;35.30;19.90;;;5.30;99.90;;;;;;4975863;28;20148;-73
2021/11/15 10:18:57;;;;;;;36.03;21.65;;;5.30;99.90;;;;;;5008150;28;20081;-72
2021/11/15 10:21:42;;;;;;;43.92;21.40;;;5.30;99.90;;;;;;5018060;28;20050;-72
2021/11/15 10:24:15;;;;;;;39.28;20.55;;;5.30;99.90;;;;;;4988638;28;20060;-73
2021/11/15 10:26:56;;;;;;;42.13;22.58;;;5.20;99.90;;;;;;5011358;28;20068;-73
2021/11/15 10:29:27;;;;;;;36.40;20.10;;;5.20;99.90;;;;;;5025787;28;20415;-73
2021/11/15 10:32:02;;;;;;;36.90;20.35;;;5.10;99.90;;;;;;5007034;28;20076;-74
2021/11/15 10:34:39;;;;;;;38.83;20.15;;;5.20;99.90;;;;;;5026118;28;20055;-72
2021/11/15 10:37:11;;;;;;;42.72;20.90;;;5.30;99.90;;;;;;5007470;28;20140;-73
2021/11/15 10:39:57;;;;;;;30.92;18.38;;;5.30;99.90;;;;;;5024867;28;20056;-73
2021/11/15 10:42:29;;;;;;;37.42;20.48;;;5.30;99.90;;;;;;5003718;28;20132;-73
2021/11/15 10:45:17;;;;;;;38.15;21.08;;;5.30;99.90;;;;;;5007329;28;20599;-74
2021/11/15 10:48:02;;;;;;;33.85;20.35;;;5.40;99.90;;;;;;5024917;28;20068;-74
2021/11/15 10:50:54;;;;;;;41.13;21.85;;;5.40;99.90;;;;;;5040354;28;20675;-73
2021/11/15 10:53:33;;;;;;;35.70;20.10;;;5.30;99.90;;;;;;5024939;28;20508;-73
2021/11/15 10:56:05;;;;;;;36.55;19.88;;;5.30;99.90;;;;;;5026534;28;20484;-74
2021/11/15 10:58:40;;;;;;;38.55;20.50;;;5.30;99.90;;;;;;5032742;28;20515;-73
2021/11/15 11:01:08;;;;;;;38.90;21.67;;;5.20;99.90;;;;;;5024977;28;20052;-74
2021/11/15 11:03:36;;;;;;;35.28;20.42;;;5.20;99.90;;;;;;5007492;28;20567;-73
2021/11/15 11:06:06;;;;;;;41.42;22.63;;;5.30;99.90;;;;;;5006737;28;20049;-73
2021/11/15 11:08:42;;;;;;;39.55;19.05;;;5.20;99.90;;;;;;4988710;28;20111;-73
2021/11/15 11:11:30;;;;;;;40.53;22.67;;;5.20;99.90;;;;;;5006643;28;20668;-73
2021/11/15 11:14:04;;;;;;;42.22;21.17;;;5.30;99.90;;;;;;5006243;28;20042;-73
2021/11/15 11:16:51;;;;;;;35.90;20.80;;;5.30;99.90;;;;;;5006375;28;20535;-73
2021/11/15 11:19:36;;;;;;;47.15;22.73;;;5.30;99.90;;;;;;5006648;28;20065;-72
2021/11/15 11:27:33;;;;;;;46.75;24.35;;;5.30;99.90;;;;;;5025126;28;19959;-73
2021/11/15 11:30:00;;;;;;;46.63;25.90;;;5.30;99.90;;;;;;5023926;28;20057;-73
2021/11/15 11:32:29;;;;;;;42.67;22.60;;;5.30;99.90;;;;;;5006627;28;20520;-73
2021/11/15 11:35:00;;;;;;;39.53;22.15;;;5.30;99.90;;;;;;5024849;28;20076;-73
2021/11/15 11:37:29;;;;;;;35.67;20.02;;;5.30;99.90;;;;;;5006802;28;20045;-74
2021/11/15 11:40:00;;;;;;;42.28;24.20;;;5.30;99.90;;;;;;4990247;28;20122;-74
2021/11/15 11:42:28;;;;;;;43.30;23.63;;;5.30;99.90;;;;;;5005994;28;20640;-74
2021/11/15 11:44:56;;;;;;;42.72;22.50;;;5.30;99.90;;;;;;5025531;28;20069;-74
2021/11/15 11:47:26;;;;;;;39.83;23.05;;;5.30;99.90;;;;;;5023307;28;20056;-73
2021/11/15 11:49:57;;;;;;;38.75;22.20;;;5.30;99.90;;;;;;5006149;28;20126;-74
2021/11/15 11:52:28;;;;;;;39.38;21.63;;;5.30;99.90;;;;;;5005998;28;20057;-74
2021/11/15 11:54:55;;;;;;;38.88;22.85;;;5.40;99.90;;;;;;5006625;28;20037;-74
2021/11/15 11:57:28;;;;;;;43.65;24.08;;;5.30;99.90;;;;;;5003247;28;20033;-74
2021/11/15 11:59:55;;;;;;;43.85;23.65;;;5.40;99.90;;;;;;5023962;28;20049;-73
2021/11/15 12:02:28;;;;;;;46.17;24.65;;;5.40;99.90;;;;;;5006169;28;20041;-72
2021/11/15 12:05:06;;;;;;;39.70;22.15;;;5.50;99.90;;;;;;5006235;28;20141;-72
2021/11/15 12:07:46;;;;;;;41.03;23.52;;;5.50;99.90;;;;;;5023466;28;20053;-74
2021/11/15 12:10:32;;;;;;;42.55;23.73;;;5.50;99.90;;;;;;5006341;28;20049;-74
2021/11/15 12:12:59;;;;;;;;;;;5.40;99.90;;;;;;5024157;28;20121;-74
2021/11/15 12:15:50;;;;;;;46.92;25.67;;;5.40;99.90;;;;;;5005159;28;19932;-74
2021/11/15 12:18:24;;;;;;;41.33;23.17;;;5.30;99.90;;;;;;5005928;28;20111;-74
2021/11/15 12:21:03;;;;;;;43.05;24.48;;;5.30;99.90;;;;;;5021802;28;20124;-74
2021/11/15 12:23:41;;;;;;;39.95;23.20;;;5.30;99.90;;;;;;5005029;28;20049;-72
2021/11/15 12:26:14;;;;;;;46.78;25.95;;;5.40;99.90;;;;;;5024000;28;20054;-72
2021/11/15 12:28:43;;;;;;;51.38;27.42;;;5.40;99.90;;;;;;5006271;28;20206;-72
2021/11/15 12:31:12;;;;;;;45.83;25.30;;;5.50;99.90;;;;;;5021267;28;20495;-73
2021/11/15 12:33:42;;;;;;;44.17;24.38;;;5.50;99.90;;;;;;5002083;28;20408;-73
2021/11/15 12:36:13;;;;;;;43.85;23.38;;;5.50;99.90;;;;;;5005412;28;20050;-73
2021/11/15 12:38:42;;;;;;;48.83;26.20;;;5.30;99.90;;;;;;5005681;28;20049;-72
2021/11/15 12:41:18;;;;;;;47.70;26.50;;;5.40;99.90;;;;;;5003564;28;20042;-72
2021/11/15 12:44:04;;;;;;;49.25;28.10;;;5.40;99.90;;;;;;5022415;28;20111;-72
2021/11/15 12:46:40;;;;;;;51.00;27.60;;;5.40;99.90;;;;;;5004505;28;20507;-73
2021/11/15 12:49:19;;;;;;;47.13;27.00;;;5.40;99.90;;;;;;5004478;28;20046;-72
2021/11/15 12:52:10;;;;;;;46.47;24.77;;;5.40;99.90;;;;;;5022477;28;20053;-72
2021/11/15 12:54:51;;;;;;;50.28;27.75;;;5.30;99.90;;;;;;5004741;28;20049;-72